Time;durP1;ratioP1;P1;durP2;ratioP2;P2;SDS_P1;SDS_P2;PMS_P1;PMS_P2;Temp;Humidity;BMP_temperature;BMP_pressure;BME280_temperature;BME280_humidity;BME280_pressure;Samples;Min_cycle;Max_cycle;Signal;HPM_P1;HPM_P2
2023/03/17 00:00:45;;;;;;;5.40;4.33;;;7.60;58.90;;;10.63;41.53;97321.09;5030033;28;20052;-46
2023/03/17 00:03:28;;;;;;;10.43;4.60;;;7.40;59.60;;;10.59;41.06;97317.94;5029949;28;20045;-50
2023/03/17 00:05:58;;;;;;;8.97;4.97;;;7.40;59.50;;;10.59;41.39;97303.78;5029037;28;20505;-46
2023/03/17 00:08:30;;;;;;;7.30;4.70;;;7.40;59.70;;;10.61;41.37;97288.47;5028497;28;20393;-46
2023/03/17 00:10:58;;;;;;;6.40;4.53;;;7.40;59.60;;;10.58;41.32;97284.31;5029951;28;20045;-50
2023/03/17 00:13:27;;;;;;;6.63;4.07;;;7.40;59.30;;;10.60;41.00;97292.13;5030010;28;20050;-50
2023/03/17 00:16:00;;;;;;;6.20;4.63;;;7.40;59.20;;;10.61;41.03;97288.47;5029130;28;20072;-48
2023/03/17 00:18:30;;;;;;;7.10;4.47;;;7.50;59.00;;;10.62;41.20;97285.66;5029705;28;20049;-47
2023/03/17 00:20:58;;;;;;;6.73;3.97;;;7.50;58.80;;;10.63;41.22;97283.81;5030224;28;20101;-50
2023/03/17 00:23:26;;;;;;;6.73;4.97;;;7.50;58.70;;;10.66;41.12;97285.31;5028026;28;20049;-46
2023/03/17 00:25:54;;;;;;;6.50;4.30;;;7.50;59.00;;;10.66;41.62;97275.47;5030113;28;20046;-49
2023/03/17 00:28:25;;;;;;;7.40;4.13;;;7.50;59.10;;;10.66;41.18;97277.31;5029662;28;20385;-46
2023/03/17 00:31:00;;;;;;;8.37;4.63;;;7.50;59.00;;;10.67;41.00;97282.47;5028349;28;20041;-50
2023/03/17 00:33:33;;;;;;;7.97;5.13;;;7.50;58.60;;;10.62;41.02;97274.16;5028463;28;20548;-45
2023/03/17 00:36:01;;;;;;;6.83;4.47;;;7.50;58.40;;;10.56;41.21;97275.66;5028981;28;20068;-48
2023/03/17 00:38:28;;;;;;;5.90;4.23;;;7.60;58.40;;;10.54;41.41;97275.00;5028609;28;20056;-46
2023/03/17 00:40:58;;;;;;;8.57;4.63;;;7.60;58.20;;;10.48;41.37;97277.53;5028512;28;20420;-50
2023/03/17 00:43:26;;;;;;;4.27;3.70;;;7.50;58.60;;;10.49;41.38;97276.50;5028324;28;20048;-46
2023/03/17 00:45:56;;;;;;;6.43;4.50;;;7.50;58.90;;;10.44;41.74;97274.38;5029871;28;20046;-46
2023/03/17 00:48:24;;;;;;;6.20;4.20;;;7.40;59.00;;;10.44;41.58;97277.84;5028221;28;20072;-50
2023/03/17 00:50:53;;;;;;;7.53;4.27;;;7.40;59.00;;;10.47;41.36;97270.53;5029721;28;20496;-45
2023/03/17 00:53:21;;;;;;;5.77;3.90;;;7.40;58.60;;;10.43;41.57;97265.56;5012128;28;20056;-46
2023/03/17 00:55:49;;;;;;;5.47;4.03;;;7.50;58.50;;;10.44;41.61;97258.41;5020735;28;20524;-44
2023/03/17 00:58:32;;;;;;;7.30;4.30;;;7.50;58.90;;;10.44;41.34;97251.25;5028616;28;20055;-47
2023/03/17 01:01:01;;;;;;;6.63;4.00;;;7.50;58.30;;;10.48;41.22;97249.06;5028759;28;20050;-44
2023/03/17 01:03:29;;;;;;;6.43;4.13;;;7.50;58.50;;;10.49;41.39;97250.75;5030913;28;20053;-48
2023/03/17 01:05:58;;;;;;;4.70;3.60;;;7.50;57.90;;;10.49;41.25;97249.91;5033429;28;20048;-46
2023/03/17 01:08:28;;;;;;;7.50;3.77;;;7.50;58.10;;;10.52;41.29;97254.91;5031491;28;20417;-46
2023/03/17 01:10:56;;;;;;;4.50;3.67;;;7.50;58.40;;;10.59;41.56;97253.22;5015537;28;20045;-47
2023/03/17 01:13:24;;;;;;;6.57;3.90;;;7.50;58.30;;;10.58;41.22;97251.53;5031922;28;20064;-47
2023/03/17 01:15:54;;;;;;;6.80;4.27;;;7.50;58.60;;;10.59;41.18;97238.06;5031638;28;20061;-44
2023/03/17 01:18:23;;;;;;;4.70;3.67;;;7.50;58.50;;;10.61;41.18;97230.75;5015549;28;20049;-47
2023/03/17 01:20:50;;;;;;;6.33;3.20;;;7.50;58.80;;;10.63;41.06;97238.56;5025279;28;20042;-46
2023/03/17 01:23:18;;;;;;;6.17;4.00;;;7.40;58.50;;;10.66;40.71;97235.53;5027662;28;20037;-49
2023/03/17 01:25:46;;;;;;;5.50;3.80;;;7.50;58.30;;;10.66;40.88;97229.41;5031471;28;20045;-47
2023/03/17 01:28:16;;;;;;;5.77;3.90;;;7.50;58.50;;;10.67;41.00;97231.91;5031603;28;20045;-48
2023/03/17 01:30:46;;;;;;;5.73;3.40;;;7.50;58.70;;;10.69;40.86;97229.88;5031340;28;20052;-47
2023/03/17 01:33:14;;;;;;;5.17;3.70;;;7.50;58.20;;;10.70;41.25;97214.72;5031783;28;20113;-47
2023/03/17 01:35:44;;;;;;;6.37;4.47;;;7.50;58.50;;;10.67;41.07;97223.09;5031509;28;20057;-53
2023/03/17 01:38:13;;;;;;;6.40;4.93;;;7.50;59.20;;;10.58;41.57;97219.59;5047473;28;20056;-47
2023/03/17 01:40:49;;;;;;;9.73;5.23;;;7.40;59.90;;;10.48;41.54;97225.13;5031042;28;20064;-49
2023/03/17 01:43:35;;;;;;;7.90;4.90;;;7.30;61.00;;;10.41;41.82;97218.81;5031163;28;20057;-50
2023/03/17 01:46:28;;;;;;;6.13;3.93;;;7.20;62.00;;;10.38;42.16;97225.31;5031680;28;20509;-45
2023/03/17 01:49:18;;;;;;;7.00;4.63;;;7.20;62.50;;;10.40;42.17;97222.50;5023784;28;20425;-47
2023/03/17 01:52:05;;;;;;;5.70;4.10;;;7.10;61.60;;;10.37;42.33;97212.19;5033122;28;20037;-48
2023/03/17 01:54:55;;;;;;;6.33;4.70;;;7.10;62.20;;;10.29;42.17;97223.63;5030688;28;20056;-48
2023/03/17 01:57:44;;;;;;;7.70;5.43;;;7.00;63.20;;;10.26;42.70;97216.00;5031120;28;20449;-45
2023/03/17 02:00:18;;;;;;;7.90;5.53;;;6.90;62.80;;;10.19;42.67;97221.16;5031045;28;20411;-47
2023/03/17 02:02:54;;;;;;;10.77;6.47;;;6.90;63.70;;;10.17;42.99;97225.81;5030750;28;20053;-44
2023/03/17 02:05:28;;;;;;;13.47;8.77;;;6.80;63.90;;;10.12;42.91;97214.03;5030618;28;20048;-47
2023/03/17 02:07:56;;;;;;;11.03;7.07;;;6.80;64.50;;;10.10;43.06;97216.03;5023217;28;20045;-46
2023/03/17 02:10:28;;;;;;;9.87;7.17;;;6.70;64.60;;;10.04;43.27;97212.22;5032064;28;20069;-47
2023/03/17 02:13:02;;;;;;;12.10;7.20;;;6.70;64.80;;;10.01;43.39;97207.25;5014122;28;20497;-48
2023/03/17 02:15:49;;;;;;;12.50;7.20;;;6.70;65.30;;;10.00;43.14;97213.53;5030039;28;20053;-50
2023/03/17 02:18:21;;;;;;;26.57;15.63;;;6.70;66.00;;;9.96;43.55;97212.22;5032169;28;20060;-48
2023/03/17 02:20:48;;;;;;;20.67;13.03;;;6.60;65.70;;;9.90;43.50;97216.38;5030686;28;20045;-49
2023/03/17 02:23:21;;;;;;;9.90;6.63;;;6.60;65.20;;;9.83;43.80;97224.22;5038880;28;20053;-46
2023/03/17 02:25:51;;;;;;;8.33;4.93;;;6.50;66.40;;;9.79;44.05;97222.03;5029948;28;20409;-46
2023/03/17 02:28:26;;;;;;;7.13;5.17;;;6.40;66.80;;;9.76;43.97;97212.56;5013550;28;20053;-49
2023/03/17 02:30:54;;;;;;;6.67;4.47;;;6.40;66.90;;;9.75;44.02;97200.28;5006653;28;20060;-45
2023/03/17 02:33:22;;;;;;;6.10;4.40;;;6.40;66.50;;;9.75;43.81;97202.94;5031801;28;20417;-47
2023/03/17 02:35:53;;;;;;;6.90;4.30;;;6.40;66.10;;;9.79;43.91;97192.78;5023678;28;20072;-50
2023/03/17 02:38:21;;;;;;;8.33;5.37;;;6.50;65.50;;;9.83;43.81;97194.97;5029724;28;20049;-50
2023/03/17 02:40:48;;;;;;;9.63;6.87;;;6.50;65.30;;;9.84;43.63;97193.94;5031495;28;20068;-47
2023/03/17 02:43:16;;;;;;;7.57;5.43;;;6.50;64.70;;;9.80;43.41;97203.25;5030197;28;20065;-47
2023/03/17 02:45:43;;;;;;;7.10;4.77;;;6.50;64.80;;;9.76;43.34;97196.63;5031441;28;20100;-46
2023/03/17 02:48:12;;;;;;;6.90;5.07;;;6.50;64.50;;;9.71;43.71;97198.13;5029887;28;20057;-46
2023/03/17 02:50:39;;;;;;;5.47;4.37;;;6.50;64.80;;;9.72;43.73;97199.78;5031282;28;20093;-46
2023/03/17 02:53:07;;;;;;;6.80;4.57;;;6.50;64.90;;;9.73;43.68;97198.78;5030934;28;20041;-48
2023/03/17 02:55:35;;;;;;;6.33;4.77;;;6.40;65.00;;;9.76;43.79;97193.13;5031331;28;20056;-48
2023/03/17 02:58:03;;;;;;;5.97;4.27;;;6.50;65.00;;;9.79;43.75;97187.47;5031023;28;20053;-49
2023/03/17 03:00:31;;;;;;;7.57;4.10;;;6.60;64.80;;;9.80;43.82;97189.97;5029996;28;20083;-46
2023/03/17 03:02:59;;;;;;;7.53;4.30;;;6.60;64.90;;;9.81;43.59;97186.31;5031178;28;20056;-44
2023/03/17 03:05:27;;;;;;;7.27;4.40;;;6.60;64.40;;;9.80;43.38;97184.66;5030823;28;20042;-50
2023/03/17 03:07:55;;;;;;;6.50;4.57;;;6.60;64.00;;;9.82;43.59;97184.50;5022699;28;20046;-49
2023/03/17 03:10:23;;;;;;;7.57;4.00;;;6.70;63.60;;;9.82;43.62;97177.34;5029940;28;20147;-46
2023/03/17 03:12:50;;;;;;;5.90;3.97;;;6.60;63.70;;;9.81;43.27;97175.69;5031216;28;20044;-48
2023/03/17 03:15:19;;;;;;;6.53;3.80;;;6.60;63.40;;;9.79;43.40;97175.03;5031027;28;20049;-48
2023/03/17 03:17:47;;;;;;;6.77;4.70;;;6.60;63.80;;;9.79;43.60;97174.19;5030458;28;20452;-52
2023/03/17 03:20:15;;;;;;;6.40;3.90;;;6.50;63.80;;;9.76;43.24;97177.19;5030975;28;20045;-49
2023/03/17 03:22:42;;;;;;;6.80;4.57;;;6.60;63.60;;;9.74;43.47;97177.34;5030635;28;20060;-49
2023/03/17 03:25:10;;;;;;;5.90;4.60;;;6.50;63.40;;;9.74;43.48;97187.16;5030698;28;20132;-48
2023/03/17 03:27:38;;;;;;;6.07;3.97;;;6.50;63.50;;;9.70;43.38;97183.19;5029748;28;20056;-49
2023/03/17 03:30:07;;;;;;;6.33;3.87;;;6.50;63.20;;;9.69;43.17;97171.69;5030563;28;20060;-46
2023/03/17 03:32:34;;;;;;;7.03;3.93;;;6.50;62.90;;;9.65;43.21;97175.69;5029403;28;20497;-48
2023/03/17 03:35:03;;;;;;;4.60;4.07;;;6.50;62.60;;;9.61;43.33;97180.50;5030657;28;20056;-45
2023/03/17 03:37:30;;;;;;;5.77;3.90;;;6.50;63.00;;;9.60;43.64;97176.19;5030771;28;20477;-47
2023/03/17 03:39:58;;;;;;;5.50;3.90;;;6.40;63.30;;;9.58;43.46;97169.41;5022767;28;20041;-47
2023/03/17 03:42:25;;;;;;;7.17;4.50;;;6.40;62.70;;;9.57;43.40;97173.84;5030332;28;20048;-45
2023/03/17 03:44:53;;;;;;;5.53;4.10;;;6.50;63.00;;;9.55;43.17;97186.47;5030368;28;20057;-46
2023/03/17 03:47:20;;;;;;;5.27;3.73;;;6.50;62.30;;;9.53;43.39;97183.16;5030445;28;20157;-44
2023/03/17 03:49:48;;;;;;;5.77;4.07;;;6.50;62.80;;;9.54;43.49;97181.34;5030394;28;20037;-45
2023/03/17 03:52:16;;;;;;;5.37;4.17;;;6.40;62.70;;;9.55;43.21;97170.53;5030426;28;20042;-46
2023/03/17 03:54:43;;;;;;;5.67;4.43;;;6.50;62.50;;;9.55;43.20;97175.84;5030193;28;20042;-50
2023/03/17 03:57:11;;;;;;;5.93;4.27;;;6.40;62.40;;;9.55;43.27;97180.34;5028892;28;20061;-48
2023/03/17 03:59:38;;;;;;;6.63;5.03;;;6.40;62.60;;;9.52;43.50;97170.88;5029860;28;20060;-48
2023/03/17 04:02:06;;;;;;;5.47;4.23;;;6.40;63.30;;;9.49;43.45;97173.88;5028914;28;20052;-49
2023/03/17 04:04:36;;;;;;;9.17;4.53;;;6.30;63.90;;;9.44;43.63;97165.56;5030141;28;20045;-48
2023/03/17 04:07:04;;;;;;;7.10;4.90;;;6.20;64.50;;;9.41;43.65;97173.88;5030092;28;20038;-46
2023/03/17 04:09:32;;;;;;;7.83;5.33;;;6.10;64.70;;;9.35;43.71;97170.03;5030108;28;20037;-45
2023/03/17 04:11:59;;;;;;;8.30;4.07;;;6.10;64.70;;;9.31;43.36;97168.72;5022112;28;20052;-47
2023/03/17 04:14:27;;;;;;;5.20;3.30;;;6.00;64.00;;;9.27;43.44;97160.25;5030358;28;20034;-49
2023/03/17 04:16:55;;;;;;;6.83;3.30;;;6.00;62.60;;;9.27;43.38;97159.41;5030200;28;20038;-47
2023/03/17 04:19:22;;;;;;;6.43;3.40;;;6.00;62.40;;;9.27;42.98;97154.09;5030002;28;20048;-48
2023/03/17 04:21:50;;;;;;;6.17;3.43;;;6.10;61.60;;;9.29;42.72;97154.78;5029985;28;20045;-46
2023/03/17 04:24:21;;;;;;;3.97;2.70;;;6.10;60.80;;;9.29;42.35;97143.31;5026927;28;20050;-46
2023/03/17 04:26:48;;;;;;;4.07;2.87;;;6.20;59.50;;;9.30;42.22;97153.75;5030315;28;20048;-49
2023/03/17 04:29:16;;;;;;;3.87;2.93;;;6.30;59.30;;;9.32;42.63;97157.09;5030085;28;20041;-46
2023/03/17 04:31:43;;;;;;;5.57;2.93;;;6.30;59.50;;;9.35;42.29;97148.78;5028850;28;20049;-45
2023/03/17 04:34:17;;;;;;;6.50;3.13;;;6.30;59.60;;;9.38;42.33;97143.16;5030516;28;20049;-45
2023/03/17 04:36:46;;;;;;;4.97;3.20;;;6.30;59.30;;;9.41;42.29;97148.13;5030543;28;20067;-47
2023/03/17 04:39:15;;;;;;;5.70;3.03;;;6.30;59.30;;;9.40;42.07;97143.81;5034244;28;20413;-46
2023/03/17 04:41:42;;;;;;;5.87;3.20;;;6.30;59.00;;;9.40;42.28;97140.31;5033107;28;20046;-47
2023/03/17 04:44:10;;;;;;;4.90;3.07;;;6.30;59.50;;;9.38;42.04;97140.50;5033654;28;20069;-48
2023/03/17 04:46:37;;;;;;;3.97;2.87;;;6.30;59.20;;;9.41;42.02;97142.00;5034217;28;20037;-47
2023/03/17 04:49:05;;;;;;;6.27;3.47;;;6.30;59.00;;;9.42;42.25;97147.16;5033837;28;20049;-50
2023/03/17 04:51:35;;;;;;;4.57;3.17;;;6.30;58.90;;;9.42;42.26;97139.16;5034357;28;20045;-48
2023/03/17 04:54:04;;;;;;;4.17;3.27;;;6.30;59.10;;;9.44;42.17;97145.16;5024930;28;20412;-48
2023/03/17 04:56:32;;;;;;;3.63;2.70;;;6.30;59.10;;;9.43;41.38;97140.81;5016597;28;20049;-49
2023/03/17 04:58:59;;;;;;;5.00;4.10;;;6.30;58.90;;;9.43;42.04;97138.16;5025672;28;20061;-51
2023/03/17 05:01:27;;;;;;;5.10;3.20;;;6.30;59.00;;;9.43;41.88;97143.47;5033984;28;20067;-46
2023/03/17 05:03:55;;;;;;;5.47;3.73;;;6.30;59.10;;;9.43;41.69;97137.34;5033998;28;20049;-49
2023/03/17 05:06:22;;;;;;;4.73;3.17;;;6.30;58.40;;;9.39;41.85;97136.84;5034077;28;20042;-48
2023/03/17 05:08:50;;;;;;;4.53;3.37;;;6.30;58.50;;;9.38;41.98;97126.38;5033244;28;20497;-46
2023/03/17 05:11:17;;;;;;;4.33;3.47;;;6.30;58.80;;;9.39;41.81;97131.53;5034044;28;20436;-47
2023/03/17 05:13:46;;;;;;;5.00;3.20;;;6.30;58.80;;;9.40;41.55;97125.22;5034026;28;20421;-48
2023/03/17 05:16:13;;;;;;;3.90;2.90;;;6.30;58.30;;;9.38;41.45;97129.03;5033913;28;20509;-45
2023/03/17 05:18:42;;;;;;;5.30;3.30;;;6.40;58.10;;;9.39;41.83;97133.34;5033373;28;20040;-49
2023/03/17 05:21:10;;;;;;;4.77;2.90;;;6.30;58.00;;;9.38;41.94;97131.69;5033463;28;20107;-49
2023/03/17 05:23:37;;;;;;;7.13;4.07;;;6.30;57.70;;;9.39;41.32;97138.66;5033424;28;20072;-45
2023/03/17 05:26:05;;;;;;;6.90;3.30;;;6.40;57.10;;;9.36;41.35;97141.66;5032912;28;20052;-49
2023/03/17 05:28:33;;;;;;;4.73;3.13;;;6.40;57.30;;;9.36;41.54;97146.97;5031425;28;20049;-49
2023/03/17 05:31:02;;;;;;;4.73;3.03;;;6.40;57.70;;;9.39;41.61;97149.28;5033509;28;20068;-52
2023/03/17 05:33:29;;;;;;;4.63;3.57;;;6.40;58.10;;;9.38;41.64;97152.94;5033653;28;20033;-50
2023/03/17 05:35:57;;;;;;;6.27;3.57;;;6.40;58.10;;;9.35;41.99;97151.44;5033443;28;20049;-48
2023/03/17 05:38:25;;;;;;;6.03;3.40;;;6.40;58.90;;;9.37;41.92;97151.28;5032739;28;20045;-47
2023/03/17 05:40:53;;;;;;;5.33;3.43;;;6.30;59.00;;;9.38;41.92;97143.16;5033258;28;20056;-52
2023/03/17 05:43:20;;;;;;;5.17;4.40;;;6.30;59.20;;;9.40;42.00;97135.84;5033346;28;20048;-50
2023/03/17 05:45:49;;;;;;;10.37;7.70;;;6.30;58.90;;;9.40;41.85;97140.31;5033141;28;20049;-45
2023/03/17 05:48:17;;;;;;;6.27;4.87;;;6.30;59.60;;;9.35;42.35;97146.13;5032332;28;20053;-46
2023/03/17 05:50:44;;;;;;;12.60;7.10;;;6.20;60.70;;;9.30;42.61;97144.97;5032631;28;20405;-48
2023/03/17 05:53:12;;;;;;;13.73;10.40;;;6.10;61.70;;;9.29;42.89;97140.66;5033064;28;20056;-45
2023/03/17 05:55:40;;;;;;;13.47;10.50;;;6.00;62.20;;;9.24;42.81;97144.63;5033049;28;20532;-45
2023/03/17 05:58:08;;;;;;;9.57;8.47;;;5.90;62.80;;;9.19;43.01;97141.66;5032764;28;20049;-47
2023/03/17 06:00:36;;;;;;;11.77;7.20;;;5.90;63.30;;;9.12;43.21;97153.09;5032553;28;20045;-48
2023/03/17 06:03:04;;;;;;;11.20;7.30;;;5.70;63.90;;;9.06;43.22;97146.63;5032730;28;20461;-46
2023/03/17 06:05:32;;;;;;;16.77;10.30;;;5.60;64.60;;;9.01;43.46;97149.72;5032988;28;20543;-46
2023/03/17 06:08:00;;;;;;;12.13;8.67;;;5.60;65.00;;;8.98;43.73;97158.03;5032145;28;20417;-46
2023/03/17 06:10:28;;;;;;;12.60;9.67;;;5.60;65.20;;;8.93;43.71;97155.03;5032540;28;20041;-46
2023/03/17 06:12:57;;;;;;;9.97;7.20;;;5.60;65.60;;;8.94;43.60;97155.88;5032619;28;20409;-49
2023/03/17 06:15:25;;;;;;;14.50;7.23;;;5.60;65.50;;;8.94;43.76;97154.06;5032664;28;20042;-46
2023/03/17 06:17:53;;;;;;;10.23;7.37;;;5.60;65.20;;;8.94;43.87;97154.06;5032185;28;20045;-44
2023/03/17 06:20:20;;;;;;;10.80;6.67;;;5.60;65.00;;;8.97;43.83;97155.56;5032755;28;20050;-50
2023/03/17 06:22:48;;;;;;;15.07;8.63;;;5.70;65.10;;;8.96;43.94;97156.56;5032737;28;20105;-47
2023/03/17 06:25:35;;;;;;;14.83;10.17;;;5.70;65.20;;;8.97;43.89;97169.66;5032455;28;20048;-47
2023/03/17 06:28:04;;;;;;;19.70;13.33;;;5.70;65.10;;;8.97;44.12;97168.81;5031314;28;20524;-48
2023/03/17 06:30:33;;;;;;;21.67;11.87;;;5.70;65.60;;;8.99;44.23;97157.03;5032915;28;20052;-48
2023/03/17 06:33:02;;;;;;;16.27;10.20;;;5.70;65.90;;;9.02;44.15;97159.38;5032486;28;20053;-46
2023/03/17 06:35:31;;;;;;;8.23;5.80;;;5.70;65.60;;;9.02;44.11;97153.25;5032221;28;20041;-44
2023/03/17 06:37:59;;;;;;;7.60;5.50;;;5.70;65.90;;;9.02;44.50;97154.06;5031560;28;20501;-48
2023/03/17 06:40:27;;;;;;;9.03;5.30;;;5.80;66.60;;;9.03;44.36;97149.56;5032376;28;20052;-48
2023/03/17 06:42:55;;;;;;;8.83;5.50;;;5.80;66.60;;;9.05;44.72;97144.94;5032021;28;20413;-47
2023/03/17 06:45:23;;;;;;;8.60;6.23;;;5.80;67.00;;;9.05;44.79;97156.41;5032105;28;20041;-49
2023/03/17 06:47:50;;;;;;;6.60;5.90;;;5.80;67.50;;;9.05;44.92;97151.09;5031825;28;20041;-47
2023/03/17 06:50:18;;;;;;;7.30;5.63;;;5.80;67.80;;;9.09;45.00;97140.13;5032076;28;20048;-52
2023/03/17 06:52:46;;;;;;;12.00;6.03;;;5.80;68.00;;;9.12;45.00;97158.41;5032067;28;20041;-46
2023/03/17 06:55:14;;;;;;;7.63;4.63;;;5.80;68.20;;;9.14;45.31;97151.09;5031800;28;20052;-46
2023/03/17 06:57:42;;;;;;;13.67;5.93;;;5.80;68.30;;;9.19;45.09;97159.38;5031649;28;20046;-47
2023/03/17 07:00:12;;;;;;;13.53;6.60;;;5.90;68.70;;;9.26;45.07;97171.03;5031546;28;20041;-44
2023/03/17 07:02:41;;;;;;;9.17;5.73;;;6.00;68.50;;;9.33;45.04;97173.88;5031960;28;20046;-45
2023/03/17 07:05:08;;;;;;;11.50;6.40;;;6.10;68.20;;;9.41;45.13;97173.88;5023294;28;20452;-46
2023/03/17 07:07:36;;;;;;;13.07;7.00;;;6.20;68.70;;;9.49;45.05;97170.38;5031496;28;20048;-43
2023/03/17 07:10:04;;;;;;;8.57;6.03;;;6.30;67.20;;;9.55;45.46;97172.38;5031575;28;20049;-47
2023/03/17 07:12:32;;;;;;;9.30;6.63;;;6.40;67.30;;;9.63;45.05;97180.34;5031421;28;20060;-46
2023/03/17 07:15:00;;;;;;;7.23;5.50;;;6.50;67.20;;;9.71;45.05;97184.81;5031952;28;20409;-46
2023/03/17 07:17:28;;;;;;;9.13;5.20;;;6.50;67.00;;;9.78;45.04;97186.66;5030545;28;20445;-48
2023/03/17 07:19:56;;;;;;;8.10;5.33;;;6.60;67.20;;;9.82;45.12;97184.50;5031489;28;20060;-48
2023/03/17 07:22:23;;;;;;;8.17;5.60;;;6.70;67.00;;;9.85;45.10;97192.97;5029654;28;20048;-47
2023/03/17 07:24:52;;;;;;;7.63;5.90;;;6.70;67.00;;;9.91;45.30;97198.63;5027682;28;20046;-49
2023/03/17 07:27:21;;;;;;;8.13;5.33;;;6.80;67.20;;;9.96;45.45;97190.94;5030872;28;20050;-46
2023/03/17 07:29:50;;;;;;;9.20;5.60;;;6.80;67.40;;;10.02;45.14;97192.94;5031327;28;20045;-46
2023/03/17 07:32:18;;;;;;;12.97;5.90;;;6.90;67.80;;;10.10;45.38;97187.63;5031776;28;20405;-47
2023/03/17 07:34:45;;;;;;;9.20;5.57;;;6.90;67.90;;;10.14;45.25;97190.75;5031237;28;20390;-48
2023/03/17 07:37:13;;;;;;;10.77;5.37;;;7.00;68.20;;;10.20;45.40;97190.91;5030685;28;20060;-46
2023/03/17 07:39:40;;;;;;;7.53;5.83;;;7.00;68.00;;;10.28;45.26;97173.28;5031245;28;20049;-47
2023/03/17 07:42:13;;;;;;;19.13;8.33;;;7.10;68.10;;;10.37;45.58;97190.88;5029566;28;20049;-49
2023/03/17 07:44:41;;;;;;;13.00;5.90;;;7.20;68.40;;;10.42;45.56;97173.41;5030346;28;20450;-44
2023/03/17 07:47:12;;;;;;;9.23;5.33;;;7.30;68.10;;;10.46;45.46;97173.09;5029042;28;20033;-45
2023/03/17 07:49:40;;;;;;;9.43;6.63;;;7.30;67.70;;;10.50;45.47;97161.09;5029885;28;20046;-46
2023/03/17 07:52:10;;;;;;;10.53;5.80;;;7.40;68.70;;;10.54;45.30;97163.22;5030643;28;20501;-47
2023/03/17 07:54:38;;;;;;;10.70;6.07;;;7.40;67.70;;;10.58;45.47;97164.53;5031036;28;20037;-48
2023/03/17 07:57:10;;;;;;;10.30;6.20;;;7.40;67.20;;;10.59;45.18;97166.19;5029365;28;20417;-46
2023/03/17 07:59:40;;;;;;;8.30;5.93;;;7.50;67.50;;;10.64;45.48;97169.19;5029775;28;20505;-47
2023/03/17 08:02:15;;;;;;;8.53;6.57;;;7.50;67.40;;;10.69;45.16;97168.66;5030659;28;20049;-46
2023/03/17 08:04:43;;;;;;;15.87;8.07;;;7.50;67.60;;;10.73;45.06;97177.13;5030749;28;20428;-45
2023/03/17 08:07:11;;;;;;;10.57;7.00;;;7.60;67.40;;;10.79;45.25;97176.44;5029327;28;20041;-46
2023/03/17 08:09:39;;;;;;;8.93;5.43;;;7.60;67.70;;;10.83;44.80;97173.22;5029724;28;20045;-47
2023/03/17 08:12:08;;;;;;;6.63;4.83;;;7.70;66.10;;;10.91;44.25;97172.38;5029735;28;20046;-44
2023/03/17 08:14:35;;;;;;;8.60;4.13;;;7.90;64.50;;;11.01;44.10;97166.81;5030668;28;20048;-44
2023/03/17 08:17:03;;;;;;;6.77;4.57;;;8.00;63.50;;;11.12;43.99;97162.94;5030555;28;20041;-44
2023/03/17 08:19:31;;;;;;;5.23;3.83;;;8.10;62.60;;;11.18;43.67;97155.06;5030870;28;20059;-48
2023/03/17 08:21:59;;;;;;;8.87;3.63;;;8.30;61.70;;;11.31;43.49;97156.31;5030745;28;20046;-48
2023/03/17 08:24:28;;;;;;;4.67;3.40;;;8.40;60.90;;;11.40;43.38;97158.75;5030799;28;20045;-43
2023/03/17 08:26:55;;;;;;;6.40;4.03;;;8.60;57.60;;;11.51;42.95;97162.81;5029950;28;20045;-47
2023/03/17 08:29:27;;;;;;;9.60;4.63;;;8.70;60.10;;;11.61;42.89;97160.75;5029390;28;20056;-47
2023/03/17 08:31:55;;;;;;;6.73;4.10;;;8.70;60.20;;;11.70;43.07;97155.34;5030361;28;20057;-47
2023/03/17 08:34:25;;;;;;;8.90;4.77;;;8.80;59.70;;;11.76;42.52;97149.28;5029977;28;20041;-46
2023/03/17 08:36:52;;;;;;;6.07;4.97;;;8.90;59.70;;;11.82;42.86;97149.41;5030662;28;20049;-47
2023/03/17 08:39:20;;;;;;;8.23;3.90;;;8.90;59.50;;;11.88;42.79;97150.47;5030264;28;20053;-46
2023/03/17 08:41:47;;;;;;;6.90;3.67;;;9.00;59.00;;;11.92;42.24;97159.00;5030572;28;20054;-47
2023/03/17 08:44:15;;;;;;;6.63;3.70;;;9.00;59.10;;;11.98;42.38;97152.91;5030272;28;20420;-48
2023/03/17 08:46:43;;;;;;;9.17;3.57;;;9.10;58.90;;;12.03;41.88;97153.22;5044245;28;20046;-44
2023/03/17 08:49:11;;;;;;;7.97;3.90;;;9.10;58.70;;;12.09;41.91;97157.00;5028851;28;20045;-46
2023/03/17 08:51:39;;;;;;;5.73;3.70;;;9.10;58.60;;;12.13;42.09;97147.59;5030388;28;20045;-46
2023/03/17 08:54:07;;;;;;;7.00;3.57;;;9.20;58.20;;;12.19;41.88;97149.53;5029102;28;20049;-44
2023/03/17 08:56:35;;;;;;;6.20;3.50;;;9.30;57.70;;;12.23;41.51;97148.16;5012409;28;20045;-48
2023/03/17 08:59:05;;;;;;;7.00;3.90;;;9.40;57.50;;;12.30;41.99;97153.59;5028896;28;20053;-47
2023/03/17 09:01:33;;;;;;;5.07;3.33;;;9.40;57.50;;;12.34;41.78;97158.38;5030349;28;20041;-48
2023/03/17 09:04:01;;;;;;;7.80;4.40;;;9.50;58.60;;;12.42;41.91;97170.81;5030233;28;20052;-47
2023/03/17 09:06:30;;;;;;;9.07;4.30;;;9.60;58.00;;;12.46;42.04;97158.75;5029727;28;20049;-46
2023/03/17 09:08:59;;;;;;;6.50;4.57;;;9.50;58.70;;;12.51;42.16;97153.69;5029807;28;20512;-47
2023/03/17 09:11:31;;;;;;;8.97;4.80;;;9.60;59.20;;;12.55;42.38;97159.50;5029211;28;20049;-49
2023/03/17 09:13:59;;;;;;;5.83;4.07;;;9.60;59.50;;;12.59;42.71;97158.09;5024175;28;20053;-46
2023/03/17 09:16:27;;;;;;;9.17;5.20;;;9.70;59.80;;;12.63;42.31;97161.22;5030097;28;20042;-48
2023/03/17 09:18:55;;;;;;;8.00;4.37;;;9.70;59.90;;;12.64;42.53;97155.72;5029638;28;20049;-49
2023/03/17 09:21:22;;;;;;;5.97;4.53;;;9.70;60.40;;;12.69;42.58;97153.28;5029982;28;20037;-46
2023/03/17 09:23:50;;;;;;;7.50;4.53;;;9.70;60.20;;;12.73;42.81;97162.59;5032194;28;20049;-48
2023/03/17 09:26:19;;;;;;;7.33;5.23;;;9.80;60.30;;;12.77;43.15;97155.84;5033884;28;20049;-48
2023/03/17 09:28:46;;;;;;;6.40;4.40;;;9.80;61.00;;;12.82;42.95;97154.50;5033447;28;20037;-48
2023/03/17 09:31:14;;;;;;;7.90;4.97;;;9.90;60.80;;;12.87;42.83;97157.41;5033441;28;20046;-48
2023/03/17 09:33:42;;;;;;;5.93;5.03;;;10.00;60.80;;;12.93;42.87;97152.16;5033736;28;20037;-45
2023/03/17 09:36:10;;;;;;;8.40;5.90;;;10.00;60.60;;;12.99;42.90;97153.25;5033665;28;20034;-47
2023/03/17 09:38:38;;;;;;;7.23;4.63;;;10.10;60.70;;;13.05;43.01;97157.84;5032144;28;20417;-46
2023/03/17 09:41:44;;;;;;;9.13;5.27;;;10.20;60.70;;;13.12;43.04;97156.03;5033478;28;20049;-45
2023/03/17 09:44:56;;;;;;;7.23;4.47;;;10.20;60.30;;;13.19;43.17;97156.94;5033526;28;20437;-44
2023/03/17 09:47:52;;;;;;;11.77;4.77;;;10.40;60.70;;;13.27;43.05;97152.50;5024758;28;20042;-49
2023/03/17 09:50:56;;;;;;;6.87;4.53;;;10.40;60.70;;;13.32;42.77;97155.47;5025788;28;20057;-45
2023/03/17 09:53:33;;;;;;;11.43;4.80;;;10.40;60.10;;;13.41;42.59;97148.97;5034025;28;20041;-45
2023/03/17 09:56:12;;;;;;;9.40;4.70;;;10.50;60.30;;;13.48;42.93;97149.03;5032257;28;20102;-45
2023/03/17 09:58:48;;;;;;;11.37;5.57;;;10.60;60.00;;;13.57;42.61;97162.09;5031626;28;20053;-49
2023/03/17 10:01:18;;;;;;;9.07;5.47;;;10.70;60.30;;;13.64;42.65;97147.94;5033502;28;20038;-46
2023/03/17 10:03:46;;;;;;;12.87;7.70;;;10.80;60.20;;;13.72;42.81;97143.28;5033314;28;20045;-46
2023/03/17 10:06:33;;;;;;;11.13;6.63;;;10.90;60.30;;;13.82;43.02;97145.63;5032142;28;20037;-47
2023/03/17 10:09:33;;;;;;;16.40;7.43;;;11.00;60.10;;;13.93;42.91;97138.91;5032846;28;20057;-48
2023/03/17 10:12:57;;;;;;;16.63;9.13;;;11.10;60.10;;;14.03;43.14;97139.38;5031811;28;20046;-49
2023/03/17 10:16:02;;;;;;;8.25;6.45;;;11.30;60.60;;;14.16;42.90;97131.44;5031738;28;20382;-47
2023/03/17 10:18:42;;;;;;;9.68;6.82;;;11.30;60.20;;;14.28;42.91;97128.22;5009754;28;20050;-44
2023/03/17 10:21:16;;;;;;;8.13;4.87;;;11.40;60.50;;;14.36;42.98;97133.41;5032347;28;20054;-48
2023/03/17 10:23:45;;;;;;;11.43;7.83;;;11.60;60.50;;;14.44;42.69;97124.41;5031691;28;20497;-44
2023/03/17 10:26:39;;;;;;;15.37;8.63;;;11.60;60.00;;;14.56;42.66;97118.31;5027311;28;20571;-47
2023/03/17 10:29:16;;;;;;;13.32;8.13;;;11.80;59.40;;;14.72;42.35;97111.78;5032194;28;20049;-47
2023/03/17 10:31:44;;;;;;;16.55;9.45;;;11.90;59.10;;;14.83;42.29;97114.91;5031276;28;20037;-45
2023/03/17 10:34:28;;;;;;;13.67;8.03;;;12.00;59.20;;;14.96;42.29;97114.94;5032057;28;20053;-45
2023/03/17 10:37:13;;;;;;;8.80;5.87;;;12.20;58.50;;;15.10;42.05;97118.47;5030961;28;20037;-49
2023/03/17 10:39:49;;;;;;;11.40;6.53;;;12.30;57.60;;;15.23;41.76;97117.69;5030919;28;20519;-47
2023/03/17 10:42:27;;;;;;;10.18;5.47;;;12.40;58.00;;;15.35;41.49;97118.75;5032176;28;20048;-49